Time;durP1;ratioP1;P1;durP2;ratioP2;P2;SDS_P1;SDS_P2;PMS_P1;PMS_P2;Temp;Humidity;BMP_temperature;BMP_pressure;BME280_temperature;BME280_humidity;BME280_pressure;Samples;Min_cycle;Max_cycle;Signal;HPM_P1;HPM_P2
2022/06/12 00:01:15;;;;;;;5.38;3.97;;;22.30;92.60;;;;;;5043093;28;20594;-77
2022/06/12 00:03:44;;;;;;;8.85;4.13;;;22.30;92.60;;;;;;5039206;28;20195;-76
2022/06/12 00:06:13;;;;;;;7.43;4.40;;;22.30;92.60;;;;;;5042949;28;20201;-77
2022/06/12 00:08:42;;;;;;;6.32;3.95;;;22.30;92.60;;;;;;5038440;28;20199;-77
2022/06/12 00:11:16;;;;;;;8.27;4.38;;;22.30;92.60;;;;;;5039998;28;20193;-77
2022/06/12 00:13:50;;;;;;;9.00;3.90;;;22.20;92.60;;;;;;5040752;28;20221;-76
2022/06/12 00:16:20;;;;;;;8.43;3.53;;;22.20;92.90;;;;;;5042811;28;20187;-76
2022/06/12 00:18:49;;;;;;;6.38;3.92;;;22.20;92.60;;;;;;5041868;28;20912;-76
2022/06/12 00:21:18;;;;;;;7.15;3.80;;;22.20;92.60;;;;;;5042373;28;20862;-76
2022/06/12 00:23:49;;;;;;;7.68;4.05;;;22.20;92.60;;;;;;5040284;28;20195;-77
2022/06/12 00:26:24;;;;;;;7.90;3.90;;;22.20;92.60;;;;;;5042613;28;20188;-76
2022/06/12 00:28:59;;;;;;;6.28;3.85;;;22.20;92.60;;;;;;5041221;28;20183;-76
2022/06/12 00:31:28;;;;;;;8.32;4.90;;;22.20;92.60;;;;;;5037231;28;20615;-77
2022/06/12 00:33:56;;;;;;;11.55;3.88;;;22.20;92.60;;;;;;5041217;28;20198;-76
2022/06/12 00:36:26;;;;;;;9.65;3.95;;;22.20;92.70;;;;;;5035598;28;20187;-76
2022/06/12 00:38:54;;;;;;;8.65;3.80;;;22.20;92.70;;;;;;5041427;28;20210;-76
2022/06/12 00:41:23;;;;;;;6.35;4.22;;;22.20;92.70;;;;;;5042696;28;20226;-76
2022/06/12 00:43:52;;;;;;;4.93;3.40;;;22.10;92.70;;;;;;5039287;28;20198;-76
2022/06/12 00:46:46;;;;;;;4.10;3.22;;;22.10;92.70;;;;;;5043922;28;20203;-76
2022/06/12 00:49:20;;;;;;;5.53;3.83;;;22.10;92.80;;;;;;5037631;28;20195;-76
2022/06/12 00:51:53;;;;;;;7.53;4.00;;;22.10;92.80;;;;;;5040655;28;20191;-76
2022/06/12 00:54:24;;;;;;;8.57;3.67;;;22.10;92.80;;;;;;5038574;28;20214;-76
2022/06/12 00:56:57;;;;;;;5.60;3.72;;;22.10;92.80;;;;;;5041276;28;20199;-76
2022/06/12 00:59:35;;;;;;;6.32;4.65;;;22.10;92.90;;;;;;5035620;28;20195;-76
2022/06/12 01:02:06;;;;;;;13.80;4.30;;;22.10;92.90;;;;;;5040333;28;20554;-76
2022/06/12 01:07:24;;;;;;;7.72;3.83;;;22.00;92.90;;;;;;5040186;28;20223;-75
2022/06/12 01:09:56;;;;;;;7.50;4.25;;;22.00;93.00;;;;;;5042939;28;20870;-75
2022/06/12 01:12:30;;;;;;;6.60;4.80;;;22.00;93.00;;;;;;5041100;28;20187;-76
2022/06/12 01:15:02;;;;;;;8.43;4.47;;;22.00;93.20;;;;;;5039594;28;20219;-77
2022/06/12 01:17:32;;;;;;;10.75;4.70;;;22.00;93.10;;;;;;5040854;28;20195;-79
2022/06/12 01:20:05;;;;;;;8.07;4.18;;;22.00;93.20;;;;;;5041326;28;20195;-75
2022/06/12 01:23:08;;;;;;;7.13;4.75;;;22.00;93.30;;;;;;5039398;28;20194;-79
2022/06/12 01:26:04;;;;;;;8.27;4.03;;;22.00;93.30;;;;;;5030923;28;20645;-79
2022/06/12 01:28:45;;;;;;;6.47;4.20;;;22.00;93.30;;;;;;5040163;28;20205;-79
2022/06/12 01:31:40;;;;;;;6.57;4.50;;;22.00;93.30;;;;;;5041528;28;20179;-78
2022/06/12 01:34:24;;;;;;;8.13;4.72;;;22.00;93.40;;;;;;5035507;28;20202;-79
2022/06/12 01:37:01;;;;;;;9.05;4.93;;;22.00;93.40;;;;;;5042724;28;20198;-79
2022/06/12 01:39:37;;;;;;;8.18;4.32;;;22.00;93.40;;;;;;5036880;28;20186;-78
2022/06/12 01:42:13;;;;;;;7.38;4.30;;;22.00;93.40;;;;;;5041337;28;20864;-76
2022/06/12 01:44:50;;;;;;;9.80;4.63;;;22.00;93.40;;;;;;5041910;28;20861;-77
2022/06/12 01:47:27;;;;;;;6.00;4.00;;;22.00;93.50;;;;;;5035857;28;20202;-76
2022/06/12 01:50:09;;;;;;;7.15;4.53;;;22.00;93.50;;;;;;5043304;28;20182;-76
2022/06/12 01:52:45;;;;;;;8.27;3.85;;;22.00;93.40;;;;;;5039274;28;20804;-77
2022/06/12 01:55:19;;;;;;;6.82;4.35;;;22.00;93.50;;;;;;5033346;28;20186;-76
2022/06/12 01:57:55;;;;;;;7.35;3.97;;;22.00;93.40;;;;;;5040759;28;20195;-76
2022/06/12 02:00:27;;;;;;;5.93;3.95;;;22.00;93.40;;;;;;5040878;28;20202;-78
2022/06/12 02:03:02;;;;;;;5.68;3.97;;;22.00;93.30;;;;;;5040907;28;20334;-77
2022/06/12 02:05:34;;;;;;;6.20;3.22;;;22.00;93.30;;;;;;5039287;28;20281;-78
2022/06/12 02:08:09;;;;;;;7.05;3.25;;;22.00;93.30;;;;;;5041479;28;20710;-76
2022/06/12 02:10:46;;;;;;;4.65;3.25;;;22.00;93.20;;;;;;5040058;28;20187;-76
2022/06/12 02:13:18;;;;;;;9.15;3.40;;;22.00;93.10;;;;;;5038334;28;20187;-76
2022/06/12 02:15:53;;;;;;;8.70;3.40;;;22.00;93.10;;;;;;5034894;28;20222;-77
2022/06/12 02:18:26;;;;;;;8.43;3.22;;;22.00;93.10;;;;;;5041192;28;20953;-76
2022/06/12 02:21:01;;;;;;;8.02;3.47;;;22.00;93.10;;;;;;5041429;28;20210;-75
2022/06/12 02:23:34;;;;;;;4.82;3.03;;;21.90;93.00;;;;;;5039651;28;20190;-76
2022/06/12 02:26:03;;;;;;;5.05;3.17;;;21.90;93.00;;;;;;5034967;28;20640;-75
2022/06/12 02:28:38;;;;;;;5.63;3.38;;;21.90;93.00;;;;;;5045539;28;20606;-76
2022/06/12 02:31:12;;;;;;;7.20;3.67;;;21.90;93.00;;;;;;5038619;28;20190;-75
2022/06/12 02:33:45;;;;;;;5.07;3.50;;;21.90;93.00;;;;;;5042923;28;20201;-75
2022/06/12 02:36:21;;;;;;;5.68;3.65;;;21.90;93.00;;;;;;5042914;28;20183;-76
2022/06/12 02:38:56;;;;;;;6.00;3.97;;;21.90;93.00;;;;;;5044359;28;20190;-77
2022/06/12 02:41:28;;;;;;;6.47;4.40;;;21.90;93.00;;;;;;5041989;28;20189;-79
2022/06/12 02:44:01;;;;;;;7.03;4.20;;;21.80;92.90;;;;;;5046227;28;20195;-79
2022/06/12 02:46:36;;;;;;;9.73;4.32;;;21.80;92.90;;;;;;5045582;28;20183;-78
2022/06/12 02:49:06;;;;;;;7.10;4.75;;;21.80;92.90;;;;;;5041144;28;20222;-79
2022/06/12 02:51:40;;;;;;;11.18;4.82;;;21.80;93.00;;;;;;5041319;28;20199;-80
2022/06/12 02:54:15;;;;;;;9.73;4.95;;;21.80;93.00;;;;;;5042876;28;20212;-80
2022/06/12 02:56:54;;;;;;;10.13;4.82;;;21.80;93.00;;;;;;5043539;28;20195;-80
2022/06/12 02:59:31;;;;;;;9.48;5.15;;;21.80;93.10;;;;;;5043007;28;20700;-80
2022/06/12 03:02:10;;;;;;;8.10;5.10;;;21.80;93.20;;;;;;5039370;28;20197;-80
2022/06/12 03:04:43;;;;;;;9.63;5.32;;;21.70;93.20;;;;;;5037145;28;20815;-81
2022/06/12 03:07:13;;;;;;;11.02;6.03;;;21.70;93.20;;;;;;5044363;28;20187;-80
2022/06/12 03:09:42;;;;;;;11.95;6.22;;;21.70;93.20;;;;;;5042217;28;20219;-80
2022/06/12 03:12:11;;;;;;;11.25;6.15;;;21.70;93.20;;;;;;5044637;28;20289;-79
2022/06/12 03:14:40;;;;;;;9.60;5.68;;;21.70;93.30;;;;;;5038998;28;20718;-79
2022/06/12 03:17:11;;;;;;;12.32;5.80;;;21.70;93.30;;;;;;5041414;28;20644;-80
2022/06/12 03:19:47;;;;;;;9.07;5.43;;;21.70;93.30;;;;;;5042722;28;20718;-80
2022/06/12 03:22:24;;;;;;;9.00;5.35;;;21.70;93.30;;;;;;5042571;28;20226;-80
2022/06/12 03:25:08;;;;;;;7.32;5.07;;;21.80;93.30;;;;;;5042583;28;20191;-80
2022/06/12 03:27:53;;;;;;;7.78;5.20;;;21.80;93.30;;;;;;5035080;28;20191;-79
2022/06/12 03:30:31;;;;;;;11.27;6.07;;;21.80;93.40;;;;;;5044543;28;20247;-79
2022/06/12 03:33:09;;;;;;;9.88;5.80;;;21.80;93.30;;;;;;5040877;28;20202;-79
2022/06/12 03:35:50;;;;;;;8.10;5.60;;;21.80;93.40;;;;;;5036996;28;20202;-81
2022/06/12 03:38:25;;;;;;;8.75;5.57;;;21.80;93.40;;;;;;5041444;28;20195;-78
2022/06/12 03:41:01;;;;;;;8.95;5.47;;;21.80;93.40;;;;;;5044398;28;20202;-80
2022/06/12 03:43:36;;;;;;;9.80;5.10;;;21.80;93.40;;;;;;5040557;28;20199;-80
2022/06/12 03:46:17;;;;;;;6.90;4.88;;;21.80;93.40;;;;;;5043673;28;20202;-80
2022/06/12 03:48:53;;;;;;;9.30;5.28;;;21.80;93.40;;;;;;5039669;28;20210;-80
2022/06/12 03:51:27;;;;;;;7.88;4.93;;;21.90;93.40;;;;;;5044668;28;20304;-79
2022/06/12 03:54:01;;;;;;;7.43;4.43;;;21.90;93.30;;;;;;5044125;28;20195;-80
2022/06/12 03:59:26;;;;;;;9.40;5.32;;;22.00;93.30;;;;;;5035306;28;20198;-79
2022/06/12 04:01:55;;;;;;;7.75;4.82;;;22.00;93.30;;;;;;5039857;28;20230;-78
2022/06/12 04:04:29;;;;;;;8.82;4.32;;;22.00;93.30;;;;;;5034857;28;20202;-79
2022/06/12 04:07:00;;;;;;;8.57;4.22;;;22.00;93.30;;;;;;5043738;28;20773;-79
2022/06/12 04:09:32;;;;;;;5.18;3.80;;;22.00;93.20;;;;;;5044239;28;20639;-79
2022/06/12 04:12:05;;;;;;;7.85;4.78;;;22.00;93.10;;;;;;5044045;28;20879;-78
2022/06/12 04:14:39;;;;;;;4.80;3.65;;;22.10;93.10;;;;;;5040808;28;20224;-78
2022/06/12 04:17:08;;;;;;;7.90;4.18;;;22.10;93.10;;;;;;5042031;28;20194;-78
2022/06/12 04:22:23;;;;;;;8.80;3.88;;;22.20;93.10;;;;;;5042599;28;20552;-78
2022/06/12 04:24:56;;;;;;;6.95;3.90;;;22.20;93.10;;;;;;5041744;28;20195;-78
2022/06/12 04:27:28;;;;;;;9.57;3.70;;;22.20;93.00;;;;;;5037978;28;20273;-78
2022/06/12 04:29:59;;;;;;;7.88;3.83;;;22.20;93.00;;;;;;5043567;28;20704;-78
2022/06/12 04:32:29;;;;;;;7.70;3.97;;;22.20;92.90;;;;;;5043627;28;20196;-79
2022/06/12 04:34:59;;;;;;;9.15;3.80;;;22.30;93.00;;;;;;5040690;28;20191;-78
2022/06/12 04:37:30;;;;;;;6.07;3.70;;;22.30;93.00;;;;;;5043654;28;20210;-79
2022/06/12 04:40:01;;;;;;;8.75;3.78;;;22.30;92.90;;;;;;5049608;28;20871;-79
2022/06/12 04:42:31;;;;;;;7.82;3.90;;;22.40;92.80;;;;;;5043104;28;20199;-79
2022/06/12 04:45:00;;;;;;;6.25;3.65;;;22.40;92.80;;;;;;5048338;28;20598;-78
2022/06/12 04:47:31;;;;;;;5.40;3.58;;;22.40;92.80;;;;;;5043770;28;20807;-78
2022/06/12 04:50:01;;;;;;;6.00;3.40;;;22.50;92.80;;;;;;5043085;28;20323;-78
2022/06/12 04:52:30;;;;;;;9.07;3.22;;;22.50;92.70;;;;;;5042951;28;20195;-77
2022/06/12 04:54:59;;;;;;;6.30;3.22;;;22.50;92.70;;;;;;5040172;28;20199;-78
2022/06/12 04:57:31;;;;;;;5.82;3.65;;;22.60;92.70;;;;;;5041262;28;20210;-77
2022/06/12 05:00:00;;;;;;;6.28;3.25;;;22.60;92.60;;;;;;5041410;28;20187;-79
2022/06/12 05:02:30;;;;;;;10.25;3.97;;;22.70;92.60;;;;;;5042683;28;20199;-77
2022/06/12 05:05:01;;;;;;;7.68;3.80;;;22.70;92.60;;;;;;5043566;28;20191;-78
2022/06/12 05:07:29;;;;;;;8.35;3.90;;;22.70;92.60;;;;;;5041639;28;20191;-77
2022/06/12 05:09:57;;;;;;;8.07;4.10;;;22.70;92.50;;;;;;5042933;28;20222;-78
2022/06/12 05:12:26;;;;;;;6.60;3.95;;;22.80;92.50;;;;;;5044088;28;20195;-77
2022/06/12 05:14:54;;;;;;;8.38;3.65;;;22.80;92.40;;;;;;5040391;28;20250;-78
2022/06/12 05:17:23;;;;;;;4.57;3.38;;;22.90;92.40;;;;;;5040433;28;20195;-77
2022/06/12 05:19:52;;;;;;;7.32;3.40;;;22.90;92.40;;;;;;5040417;28;20197;-77
2022/06/12 05:22:25;;;;;;;7.65;3.53;;;22.90;92.30;;;;;;5041668;28;20202;-77
2022/06/12 05:24:53;;;;;;;6.05;3.70;;;23.00;92.30;;;;;;5044157;28;20187;-78
2022/06/12 05:27:24;;;;;;;7.53;3.63;;;23.00;92.20;;;;;;5042982;28;20194;-78
2022/06/12 05:29:53;;;;;;;6.57;4.22;;;23.00;92.20;;;;;;5039075;28;20203;-77
2022/06/12 05:32:23;;;;;;;6.90;3.40;;;23.10;92.20;;;;;;5044216;28;20194;-80
2022/06/12 05:34:51;;;;;;;4.57;3.35;;;23.10;92.20;;;;;;5042457;28;20195;-77
2022/06/12 05:37:22;;;;;;;10.88;3.70;;;23.20;92.20;;;;;;5046576;28;20601;-76
2022/06/12 05:39:50;;;;;;;5.90;3.35;;;23.20;92.20;;;;;;5029193;28;20200;-77
2022/06/12 05:42:20;;;;;;;8.50;3.83;;;23.20;92.10;;;;;;5034026;28;20199;-78
2022/06/12 05:44:49;;;;;;;7.13;3.60;;;23.20;92.10;;;;;;5039122;28;20686;-77
2022/06/12 05:47:18;;;;;;;5.57;3.92;;;23.20;92.50;;;;;;5039127;28;20809;-78
2022/06/12 05:49:46;;;;;;;7.55;4.53;;;23.30;92.20;;;;;;5040635;28;20989;-78
2022/06/12 05:52:16;;;;;;;4.93;3.47;;;23.30;92.20;;;;;;5041034;28;20840;-77
2022/06/12 05:54:46;;;;;;;6.95;4.00;;;23.30;92.10;;;;;;5038376;28;20195;-78
2022/06/12 05:57:14;;;;;;;7.65;3.78;;;23.30;92.10;;;;;;5041150;28;20199;-77
2022/06/12 05:59:42;;;;;;;6.25;3.95;;;23.40;92.10;;;;;;5042632;28;20195;-77
2022/06/12 06:02:12;;;;;;;5.50;3.28;;;23.50;92.10;;;;;;5039090;28;20205;-77
2022/06/12 06:04:40;;;;;;;6.78;3.70;;;23.50;92.00;;;;;;5039549;28;20207;-78
2022/06/12 06:07:08;;;;;;;6.13;3.10;;;23.60;92.00;;;;;;5038201;28;20201;-78
2022/06/12 06:09:37;;;;;;;6.15;4.20;;;23.60;92.00;;;;;;5041114;28;20198;-77
2022/06/12 06:12:08;;;;;;;6.22;4.45;;;23.70;92.00;;;;;;5034164;28;20191;-77
2022/06/12 06:14:36;;;;;;;6.10;3.70;;;23.80;92.00;;;;;;5026807;28;20334;-77
2022/06/12 06:17:06;;;;;;;6.28;3.33;;;23.90;92.00;;;;;;5019658;28;20277;-78
2022/06/12 06:19:34;;;;;;;5.70;3.58;;;23.90;91.90;;;;;;5023869;28;20206;-77
2022/06/12 06:22:03;;;;;;;9.00;3.78;;;24.00;91.80;;;;;;5021107;28;20195;-77
2022/06/12 06:24:36;;;;;;;6.55;3.67;;;24.00;91.70;;;;;;5022840;28;20218;-79
2022/06/12 06:27:06;;;;;;;4.18;3.25;;;24.10;91.50;;;;;;5023655;28;20199;-77
2022/06/12 06:29:34;;;;;;;5.22;3.45;;;24.10;91.50;;;;;;5023229;28;20195;-77
2022/06/12 06:32:03;;;;;;;6.00;3.13;;;24.20;91.40;;;;;;5024382;28;20207;-77
2022/06/12 06:34:32;;;;;;;7.28;3.22;;;24.20;91.40;;;;;;5023462;28;20207;-78
2022/06/12 06:37:00;;;;;;;7.20;3.47;;;24.30;91.30;;;;;;5023950;28;20199;-77
2022/06/12 06:39:29;;;;;;;9.68;3.33;;;24.30;91.60;;;;;;5023824;28;20228;-76
2022/06/12 06:41:57;;;;;;;5.05;2.97;;;24.40;91.20;;;;;;5024654;28;20204;-74
2022/06/12 06:47:13;;;;;;;4.20;3.03;;;24.50;91.00;;;;;;5024379;28;20222;-77
2022/06/12 06:49:41;;;;;;;4.38;3.03;;;24.60;91.00;;;;;;5024665;28;20204;-78
2022/06/12 06:52:10;;;;;;;7.40;4.05;;;24.60;90.90;;;;;;5024669;28;20233;-78
2022/06/12 06:54:38;;;;;;;5.28;3.10;;;24.70;90.80;;;;;;5022436;28;20254;-77
2022/06/12 06:57:08;;;;;;;5.60;3.10;;;24.70;90.70;;;;;;5023394;28;20230;-76
2022/06/12 06:59:39;;;;;;;6.50;3.55;;;24.80;90.80;;;;;;5024038;28;20650;-80
2022/06/12 07:02:08;;;;;;;4.43;3.20;;;24.80;90.70;;;;;;5012157;28;20203;-76
2022/06/12 07:04:38;;;;;;;5.55;3.38;;;24.90;90.50;;;;;;5023034;28;20295;-75
2022/06/12 07:07:08;;;;;;;8.60;3.28;;;25.00;90.50;;;;;;5023587;28;20204;-78
2022/06/12 07:09:36;;;;;;;7.07;3.10;;;25.00;90.20;;;;;;5023855;28;20207;-76
2022/06/12 07:12:06;;;;;;;5.65;3.25;;;25.00;90.10;;;;;;5018773;28;20687;-77
2022/06/12 07:14:34;;;;;;;3.63;2.83;;;25.10;90.10;;;;;;5018939;28;20223;-77
2022/06/12 07:17:05;;;;;;;5.32;3.20;;;25.10;90.00;;;;;;5028266;28;20196;-76
2022/06/12 07:19:34;;;;;;;4.32;2.83;;;25.20;90.00;;;;;;5028041;28;20852;-76
2022/06/12 07:22:02;;;;;;;4.43;2.95;;;25.20;90.00;;;;;;5026687;28;20200;-78
2022/06/12 07:24:31;;;;;;;8.50;3.65;;;25.30;89.80;;;;;;5027709;28;20693;-76
2022/06/12 07:26:59;;;;;;;6.57;3.08;;;25.40;89.80;;;;;;5027206;28;20202;-78
2022/06/12 07:29:27;;;;;;;7.43;3.40;;;25.40;89.50;;;;;;5028187;28;20203;-76
2022/06/12 07:31:56;;;;;;;7.85;3.20;;;25.50;89.40;;;;;;5028084;28;20227;-77
2022/06/12 07:34:26;;;;;;;4.50;3.28;;;25.50;89.40;;;;;;5026111;28;20200;-77
2022/06/12 07:36:55;;;;;;;6.45;3.42;;;25.60;88.90;;;;;;5025850;28;20192;-78
2022/06/12 07:39:29;;;;;;;7.70;3.45;;;25.60;88.90;;;;;;5027589;28;20200;-77
2022/06/12 07:41:58;;;;;;;10.77;3.30;;;25.70;89.00;;;;;;5026667;28;20204;-76
2022/06/12 07:44:30;;;;;;;7.05;3.20;;;25.70;88.70;;;;;;5027275;28;20207;-75
2022/06/12 07:46:59;;;;;;;5.28;2.97;;;25.80;88.60;;;;;;5026401;28;20195;-77
2022/06/12 07:49:30;;;;;;;8.18;3.30;;;25.80;88.40;;;;;;5028269;28;20215;-77
2022/06/12 07:52:01;;;;;;;6.60;3.28;;;25.90;88.80;;;;;;5025685;28;20873;-77
2022/06/12 07:54:31;;;;;;;4.47;3.00;;;25.90;88.60;;;;;;5027918;28;20227;-76
2022/06/12 07:57:00;;;;;;;5.38;2.80;;;26.00;88.70;;;;;;5026092;28;20204;-78
2022/06/12 07:59:29;;;;;;;5.25;3.15;;;26.00;88.60;;;;;;5027155;28;20210;-77
2022/06/12 08:01:58;;;;;;;3.75;2.90;;;26.10;88.30;;;;;;5026147;28;20200;-76
2022/06/12 08:04:26;;;;;;;4.82;3.42;;;26.20;87.90;;;;;;5027283;28;20207;-77
2022/06/12 08:06:56;;;;;;;4.10;2.88;;;26.20;87.90;;;;;;5026492;28;20196;-78
2022/06/12 08:09:25;;;;;;;10.45;3.08;;;26.20;87.60;;;;;;5025795;28;20199;-77
2022/06/12 08:11:53;;;;;;;4.75;2.72;;;26.30;86.90;;;;;;5025618;28;20728;-77
2022/06/12 08:14:23;;;;;;;4.32;3.00;;;26.30;86.80;;;;;;5027270;28;20243;-76
2022/06/12 08:16:52;;;;;;;5.22;3.33;;;26.40;86.60;;;;;;5026794;28;20195;-77
2022/06/12 08:22:09;;;;;;;4.03;2.80;;;26.50;86.50;;;;;;5026307;28;20188;-78
2022/06/12 08:24:38;;;;;;;5.85;3.42;;;26.60;86.80;;;;;;5026924;28;20219;-78
2022/06/12 08:27:07;;;;;;;4.63;3.35;;;26.60;85.50;;;;;;5026228;28;20200;-76
2022/06/12 08:29:37;;;;;;;5.85;3.38;;;26.60;85.20;;;;;;5026658;28;20549;-76
2022/06/12 08:32:12;;;;;;;7.05;3.10;;;26.60;85.50;;;;;;5025694;28;20223;-77
2022/06/12 08:34:45;;;;;;;3.83;2.83;;;26.70;85.50;;;;;;5027142;28;20195;-77
2022/06/12 08:37:18;;;;;;;4.82;3.70;;;26.70;85.50;;;;;;5026480;28;20192;-77
2022/06/12 08:39:47;;;;;;;5.03;3.03;;;26.80;85.50;;;;;;5025888;28;20202;-77
2022/06/12 08:42:22;;;;;;;5.68;3.42;;;26.80;85.10;;;;;;5024952;28;20196;-76
2022/06/12 08:44:55;;;;;;;4.63;2.60;;;26.80;84.90;;;;;;5026197;28;20222;-76
2022/06/12 08:47:30;;;;;;;5.07;2.63;;;26.90;84.50;;;;;;5026390;28;20701;-76
2022/06/12 08:50:09;;;;;;;5.10;2.63;;;26.90;84.50;;;;;;5023522;28;20191;-77
2022/06/12 08:52:43;;;;;;;6.85;2.63;;;26.90;84.30;;;;;;5026015;28;20211;-77
2022/06/12 08:55:19;;;;;;;3.58;2.40;;;27.00;83.50;;;;;;5026109;28;20580;-76
2022/06/12 08:57:51;;;;;;;6.13;3.15;;;27.00;83.30;;;;;;5022806;28;20192;-76
2022/06/12 09:00:23;;;;;;;4.70;2.75;;;27.00;83.10;;;;;;5016820;28;20202;-76
2022/06/12 09:02:52;;;;;;;4.25;2.78;;;27.10;83.10;;;;;;5021749;28;20750;-79
2022/06/12 09:05:26;;;;;;;5.00;3.10;;;27.10;83.00;;;;;;5024943;28;20269;-77
2022/06/12 09:08:01;;;;;;;7.32;3.40;;;27.10;82.70;;;;;;5025096;28;20270;-77
2022/06/12 09:10:37;;;;;;;8.70;3.42;;;27.20;81.90;;;;;;5024020;28;20502;-75
2022/06/12 09:13:15;;;;;;;5.35;3.42;;;27.30;81.00;;;;;;5020520;28;20214;-76
2022/06/12 09:15:47;;;;;;;4.35;2.60;;;27.30;80.90;;;;;;5022233;28;20876;-75
2022/06/12 09:18:29;;;;;;;6.43;2.97;;;27.30;80.30;;;;;;5023224;28;20203;-75
2022/06/12 09:21:04;;;;;;;3.90;2.85;;;27.30;79.70;;;;;;5023316;28;20195;-77
2022/06/12 09:23:48;;;;;;;6.03;3.45;;;27.40;80.30;;;;;;5021110;28;20191;-76
2022/06/12 09:26:23;;;;;;;5.72;3.38;;;27.40;79.70;;;;;;5024980;28;20188;-79
2022/06/12 09:29:02;;;;;;;7.53;3.50;;;27.50;79.70;;;;;;5021703;28;20190;-76
2022/06/12 09:31:41;;;;;;;5.00;3.22;;;27.50;79.80;;;;;;5024594;28;20215;-77
2022/06/12 09:34:15;;;;;;;5.20;3.03;;;27.60;80.20;;;;;;5023562;28;20199;-75
2022/06/12 09:36:56;;;;;;;4.18;3.30;;;27.60;80.20;;;;;;5021001;28;20199;-76
2022/06/12 09:39:42;;;;;;;6.93;3.25;;;27.70;80.40;;;;;;5017107;28;20180;-78
2022/06/12 09:42:19;;;;;;;5.05;3.05;;;27.80;79.60;;;;;;5021671;28;20199;-77
2022/06/12 09:44:52;;;;;;;7.25;3.15;;;27.90;79.20;;;;;;5021879;28;20198;-79
2022/06/12 09:47:32;;;;;;;7.78;3.28;;;28.00;79.10;;;;;;5022240;28;20192;-79
2022/06/12 09:50:32;;;;;;;7.95;3.72;;;28.10;79.00;;;;;;5025510;28;20192;-78
2022/06/12 09:53:21;;;;;;;4.88;3.25;;;28.20;78.80;;;;;;5021260;28;20211;-80
2022/06/12 09:55:57;;;;;;;4.35;2.38;;;28.20;78.10;;;;;;5025903;28;20200;-81
2022/06/12 09:58:31;;;;;;;4.93;2.85;;;28.30;76.80;;;;;;5019123;28;20321;-80
2022/06/12 10:01:04;;;;;;;5.88;2.90;;;28.40;76.50;;;;;;5021582;28;20192;-79
2022/06/12 10:03:39;;;;;;;3.80;2.70;;;28.50;76.10;;;;;;5019488;28;20637;-80
2022/06/12 10:06:16;;;;;;;7.68;2.65;;;28.50;73.50;;;;;;5023906;28;20195;-78
2022/06/12 10:08:50;;;;;;;4.95;3.13;;;28.60;74.50;;;;;;5020176;28;21773;-81
2022/06/12 10:11:25;;;;;;;9.48;2.47;;;28.70;73.40;;;;;;5018821;28;20210;-77
2022/06/12 10:13:58;;;;;;;5.13;2.30;;;28.80;72.50;;;;;;5020473;28;20235;-76
2022/06/12 10:16:32;;;;;;;4.22;2.67;;;28.80;71.30;;;;;;5025488;28;20212;-79
2022/06/12 10:19:25;;;;;;;7.10;2.35;;;28.90;71.40;;;;;;5017299;28;20657;-80
2022/06/12 10:21:55;;;;;;;4.97;2.70;;;29.00;70.80;;;;;;5011932;28;20200;-79
2022/06/12 10:24:24;;;;;;;3.83;2.40;;;29.00;70.20;;;;;;5017525;28;20821;-79
2022/06/12 10:27:02;;;;;;;5.80;2.25;;;29.00;69.20;;;;;;5022574;28;20673;-79
2022/06/12 10:29:46;;;;;;;5.47;2.30;;;29.20;69.80;;;;;;5023648;28;20196;-81
2022/06/12 10:32:19;;;;;;;4.88;2.20;;;29.20;69.80;;;;;;5017510;28;20215;-81
2022/06/12 10:34:48;;;;;;;7.03;2.40;;;29.30;68.40;;;;;;5018961;28;20206;-81
2022/06/12 10:37:28;;;;;;;4.38;2.00;;;29.30;67.40;;;;;;5015859;28;20349;-84
2022/06/12 10:40:04;;;;;;;4.28;2.72;;;29.40;67.50;;;;;;5005770;28;20201;-86
2022/06/12 10:42:42;;;;;;;3.45;2.33;;;29.50;68.60;;;;;;5018882;28;20199;-81
2022/06/12 10:45:26;;;;;;;4.38;2.75;;;29.50;68.90;;;;;;5024087;28;20203;-83
2022/06/12 10:47:58;;;;;;;3.70;2.70;;;29.60;69.00;;;;;;5019931;28;20210;-85
2022/06/12 10:50:41;;;;;;;7.55;2.85;;;29.60;68.60;;;;;;5017222;28;20206;-82
2022/06/12 10:53:21;;;;;;;5.45;2.35;;;29.60;68.60;;;;;;5025658;28;20310;-86
2022/06/12 10:55:55;;;;;;;5.03;2.85;;;29.50;67.50;;;;;;5023533;28;20202;-80
2022/06/12 10:59:00;;;;;;;3.58;2.33;;;29.40;66.40;;;;;;5017574;28;20188;-81
2022/06/12 11:01:34;;;;;;;4.10;2.25;;;29.40;67.50;;;;;;5019456;28;20219;-79
2022/06/12 11:04:11;;;;;;;4.15;2.75;;;29.30;66.60;;;;;;5022195;28;20241;-78
2022/06/12 11:06:48;;;;;;;3.85;2.30;;;29.30;67.00;;;;;;5019489;28;20190;-78
2022/06/12 11:09:39;;;;;;;5.22;2.50;;;29.40;67.30;;;;;;5020558;28;20195;-82
2022/06/12 11:12:43;;;;;;;3.55;2.17;;;29.50;68.70;;;;;;5024676;28;20282;-80
2022/06/12 11:15:30;;;;;;;5.55;2.40;;;29.70;68.10;;;;;;5023158;28;20235;-80
2022/06/12 11:18:04;;;;;;;4.20;2.40;;;29.80;68.10;;;;;;4979825;28;20237;-77
2022/06/12 11:20:45;;;;;;;5.43;1.80;;;29.90;66.50;;;;;;4978335;28;20942;-81
2022/06/12 11:23:40;;;;;;;4.32;2.40;;;29.90;63.80;;;;;;4977549;28;20228;-81
2022/06/12 11:26:30;;;;;;;3.53;2.20;;;29.80;63.10;;;;;;4978705;28;20284;-78
2022/06/12 11:29:16;;;;;;;3.97;2.03;;;29.80;64.10;;;;;;4982076;28;20205;-79
2022/06/12 11:31:58;;;;;;;3.70;2.10;;;29.80;63.20;;;;;;4984708;28;20193;-80
2022/06/12 11:34:43;;;;;;;5.70;1.88;;;29.90;62.80;;;;;;4978908;28;20296;-78
2022/06/12 11:37:30;;;;;;;2.83;1.60;;;30.10;63.80;;;;;;5020916;28;20204;-81
2022/06/12 11:40:06;;;;;;;6.45;2.10;;;30.20;63.80;;;;;;5017463;28;20828;-84
2022/06/12 11:42:44;;;;;;;3.00;1.83;;;30.20;64.00;;;;;;5024906;28;20582;-80
2022/06/12 11:45:45;;;;;;;5.00;1.90;;;30.30;64.10;;;;;;5021744;28;20191;-78
2022/06/12 11:48:34;;;;;;;5.30;1.90;;;30.50;64.10;;;;;;5024092;28;20191;-79
2022/06/12 11:51:12;;;;;;;6.75;2.00;;;30.60;64.00;;;;;;5019316;28;20214;-81
2022/06/12 11:53:59;;;;;;;3.80;2.20;;;30.60;61.70;;;;;;5015352;28;20211;-80
2022/06/12 11:56:36;;;;;;;4.10;2.25;;;30.50;62.20;;;;;;5023198;28;20192;-82
2022/06/12 11:59:20;;;;;;;5.22;2.88;;;30.40;61.60;;;;;;5023166;28;20211;-81
2022/06/12 12:01:57;;;;;;;3.45;2.33;;;30.30;60.50;;;;;;5026424;28;20204;-78
2022/06/12 12:04:53;;;;;;;7.95;2.53;;;30.20;58.50;;;;;;5020680;28;20208;-77
2022/06/12 12:07:39;;;;;;;4.03;2.10;;;30.30;58.30;;;;;;5021469;28;20211;-79
2022/06/12 12:10:20;;;;;;;7.47;2.63;;;30.30;59.40;;;;;;5023082;28;20188;-79
2022/06/12 12:12:55;;;;;;;3.78;2.42;;;30.40;59.90;;;;;;5023446;28;20203;-80
2022/06/12 12:15:28;;;;;;;2.95;2.08;;;30.50;60.70;;;;;;5018669;28;20227;-80
2022/06/12 12:17:58;;;;;;;5.32;2.20;;;30.60;61.60;;;;;;5023703;28;20223;-81
2022/06/12 12:20:34;;;;;;;4.63;2.55;;;30.70;61.10;;;;;;5023593;28;20200;-81
2022/06/12 12:23:09;;;;;;;3.45;2.17;;;30.90;61.80;;;;;;5022225;28;20294;-81
2022/06/12 12:25:43;;;;;;;10.13;2.72;;;31.00;60.80;;;;;;5020511;28;20257;-85
2022/06/12 12:28:20;;;;;;;3.30;2.13;;;31.10;59.90;;;;;;5019245;28;20282;-78
2022/06/12 12:31:01;;;;;;;2.90;2.15;;;31.20;60.30;;;;;;5022874;28;20887;-79
2022/06/12 12:33:30;;;;;;;3.30;2.25;;;31.30;60.00;;;;;;5021362;28;20219;-79
2022/06/12 12:41:45;;;;;;;4.43;2.22;;;31.70;59.70;;;;;;5021553;28;20277;-81
2022/06/12 12:44:16;;;;;;;7.70;2.88;;;31.90;59.60;;;;;;5021069;28;20218;-81
2022/06/12 12:46:48;;;;;;;3.60;2.08;;;32.00;59.20;;;;;;5024556;28;20195;-81
2022/06/12 12:49:27;;;;;;;4.60;2.20;;;32.10;55.90;;;;;;5023197;28;20227;-83
2022/06/12 12:52:09;;;;;;;3.47;1.98;;;32.10;55.20;;;;;;5018703;28;20187;-81
2022/06/12 12:55:00;;;;;;;3.60;2.08;;;32.30;54.50;;;;;;5016275;28;20299;-80
2022/06/12 12:57:37;;;;;;;3.40;1.90;;;32.30;54.30;;;;;;5020777;28;20192;-79
2022/06/12 13:00:09;;;;;;;2.33;1.70;;;32.30;55.00;;;;;;5020216;28;20198;-79
2022/06/12 13:02:48;;;;;;;7.00;1.73;;;32.40;54.80;;;;;;5019777;28;20283;-81
2022/06/12 13:05:19;;;;;;;2.95;1.58;;;32.50;54.70;;;;;;5023106;28;20206;-82
2022/06/12 13:08:13;;;;;;;2.45;1.38;;;32.60;54.20;;;;;;5018312;28;20199;-80
2022/06/12 13:11:06;;;;;;;3.72;1.80;;;32.60;53.90;;;;;;5020017;28;20215;-81
2022/06/12 13:14:07;;;;;;;3.92;1.85;;;32.60;54.10;;;;;;5018918;28;20330;-78
2022/06/12 13:17:01;;;;;;;2.35;1.67;;;32.80;55.00;;;;;;5016039;28;20809;-84
2022/06/12 13:19:54;;;;;;;2.83;1.83;;;32.90;54.20;;;;;;5015940;28;20196;-82
2022/06/12 13:22:35;;;;;;;5.78;1.80;;;32.90;53.90;;;;;;5016220;28;20202;-80
2022/06/12 13:25:09;;;;;;;2.55;1.55;;;32.80;53.70;;;;;;5024210;28;20739;-82
2022/06/12 13:27:50;;;;;;;6.72;1.65;;;32.60;52.80;;;;;;5026557;28;20242;-81
2022/06/12 13:30:23;;;;;;;3.88;1.63;;;32.40;53.10;;;;;;5022674;28;20202;-83
2022/06/12 13:32:54;;;;;;;3.42;1.63;;;32.20;52.00;;;;;;5019947;28;20274;-82
2022/06/12 13:35:30;;;;;;;3.22;1.60;;;32.10;51.30;;;;;;5017633;28;20217;-79
2022/06/12 13:38:04;;;;;;;5.30;1.63;;;31.90;51.80;;;;;;5022992;28;20200;-78
2022/06/12 13:40:39;;;;;;;5.10;1.88;;;31.90;52.80;;;;;;5024546;28;20592;-79
2022/06/12 13:43:16;;;;;;;2.45;1.80;;;31.70;52.30;;;;;;5024596;28;20196;-79